sensor_id;sensor_type;location;lat;lon;timestamp;pressure;altitude;pressure_sealevel;temperature;humidity
47710;BME280;33473;51.640;5.892;2022-09-01T00:10:14;101900;;;21.7;37.0
47710;BME280;33473;51.640;5.892;2022-09-01T00:23:34;101900;;;21.7;38.0
47710;BME280;33473;51.640;5.892;2022-09-01T00:36:54;101900;;;21.5;38.0
47710;BME280;33473;51.640;5.892;2022-09-01T00:50:14;101900;;;21.3;38.0
47710;BME280;33473;51.640;5.892;2022-09-01T01:03:34;101900;;;21.3;39.0
47710;BME280;33473;51.640;5.892;2022-09-01T01:16:53;101900;;;21.2;39.0
47710;BME280;33473;51.640;5.892;2022-09-01T01:30:13;101900;;;21.2;39.0
47710;BME280;33473;51.640;5.892;2022-09-01T01:43:33;101900;;;21.1;39.0
47710;BME280;33473;51.640;5.892;2022-09-01T01:56:53;101900;;;21.0;39.0
47710;BME280;33473;51.640;5.892;2022-09-01T02:10:12;101900;;;21.0;40.0
47710;BME280;33473;51.640;5.892;2022-09-01T02:23:32;101900;;;20.9;40.0
47710;BME280;33473;51.640;5.892;2022-09-01T02:36:52;101900;;;20.8;40.0
47710;BME280;33473;51.640;5.892;2022-09-01T02:50:12;101900;;;20.7;40.0
47710;BME280;33473;51.640;5.892;2022-09-01T03:03:32;101900;;;20.4;40.0
47710;BME280;33473;51.640;5.892;2022-09-01T03:16:51;101900;;;20.2;40.0
47710;BME280;33473;51.640;5.892;2022-09-01T03:30:11;101900;;;19.9;41.0
47710;BME280;33473;51.640;5.892;2022-09-01T03:43:31;101900;;;19.7;41.0
47710;BME280;33473;51.640;5.892;2022-09-01T03:56:51;101900;;;19.6;41.0
47710;BME280;33473;51.640;5.892;2022-09-01T04:10:11;101900;;;19.5;42.0
47710;BME280;33473;51.640;5.892;2022-09-01T04:23:30;101900;;;19.5;42.0
47710;BME280;33473;51.640;5.892;2022-09-01T04:36:50;101900;;;19.3;42.0
47710;BME280;33473;51.640;5.892;2022-09-01T04:50:10;101900;;;19.2;42.0
47710;BME280;33473;51.640;5.892;2022-09-01T05:03:30;101900;;;19.0;43.0
47710;BME280;33473;51.640;5.892;2022-09-01T05:16:50;101900;;;19.0;43.0
47710;BME280;33473;51.640;5.892;2022-09-01T05:30:09;101900;;;18.9;43.0
47710;BME280;33473;51.640;5.892;2022-09-01T05:43:29;101900;;;19.0;43.0
47710;BME280;33473;51.640;5.892;2022-09-01T05:56:49;101900;;;19.2;44.0
47710;BME280;33473;51.640;5.892;2022-09-01T06:10:09;101900;;;19.8;42.0
47710;BME280;33473;51.640;5.892;2022-09-01T06:23:29;101900;;;20.5;41.0
47710;BME280;33473;51.640;5.892;2022-09-01T06:36:48;102000;;;20.9;40.0
47710;BME280;33473;51.640;5.892;2022-09-01T06:50:08;102000;;;21.4;38.0
47710;BME280;33473;51.640;5.892;2022-09-01T07:03:28;102000;;;21.8;37.0
47710;BME280;33473;51.640;5.892;2022-09-01T07:16:48;102000;;;22.1;37.0
47710;BME280;33473;51.640;5.892;2022-09-01T07:30:08;102000;;;22.4;36.0
47710;BME280;33473;51.640;5.892;2022-09-01T07:43:28;102000;;;23.0;36.0
47710;BME280;33473;51.640;5.892;2022-09-01T07:56:47;102000;;;23.8;36.0
47710;BME280;33473;51.640;5.892;2022-09-01T08:10:07;101900;;;24.8;34.0
47710;BME280;33473;51.640;5.892;2022-09-01T08:23:27;101900;;;25.8;32.0
47710;BME280;33473;51.640;5.892;2022-09-01T08:36:47;101900;;;26.8;29.0
47710;BME280;33473;51.640;5.892;2022-09-01T08:50:07;101900;;;27.8;27.0
47710;BME280;33473;51.640;5.892;2022-09-01T09:03:26;101900;;;28.6;26.0
47710;BME280;33473;51.640;5.892;2022-09-01T09:16:46;101900;;;29.1;25.0
47710;BME280;33473;51.640;5.892;2022-09-01T09:30:06;101900;;;29.6;24.0
47710;BME280;33473;51.640;5.892;2022-09-01T09:43:26;101900;;;30.2;23.0
47710;BME280;33473;51.640;5.892;2022-09-01T09:56:46;101900;;;30.6;21.0
47710;BME280;33473;51.640;5.892;2022-09-01T10:10:06;101900;;;30.9;20.0
47710;BME280;33473;51.640;5.892;2022-09-01T10:23:26;101900;;;31.5;19.0
47710;BME280;33473;51.640;5.892;2022-09-01T10:36:45;101900;;;31.9;19.0
47710;BME280;33473;51.640;5.892;2022-09-01T10:50:05;101900;;;32.1;18.0
47710;BME280;33473;51.640;5.892;2022-09-01T11:03:25;101900;;;32.2;17.0
47710;BME280;33473;51.640;5.892;2022-09-01T11:16:45;101900;;;32.5;16.0
47710;BME280;33473;51.640;5.892;2022-09-01T11:30:05;101800;;;32.5;16.0
47710;BME280;33473;51.640;5.892;2022-09-01T11:43:25;101800;;;32.5;15.0
47710;BME280;33473;51.640;5.892;2022-09-01T11:56:45;101800;;;32.6;16.0
47710;BME280;33473;51.640;5.892;2022-09-01T12:10:04;101800;;;32.7;16.0
47710;BME280;33473;51.640;5.892;2022-09-01T12:23:24;101800;;;32.9;16.0
47710;BME280;33473;51.640;5.892;2022-09-01T12:36:44;101800;;;33.1;15.0
47710;BME280;33473;51.640;5.892;2022-09-01T12:50:04;101800;;;32.9;15.0
47710;BME280;33473;51.640;5.892;2022-09-01T13:03:24;101800;;;32.7;16.0
47710;BME280;33473;51.640;5.892;2022-09-01T13:16:44;101800;;;32.8;16.0
47710;BME280;33473;51.640;5.892;2022-09-01T13:30:03;101700;;;33.1;16.0
47710;BME280;33473;51.640;5.892;2022-09-01T13:43:23;101700;;;33.2;15.0
47710;BME280;33473;51.640;5.892;2022-09-01T13:56:43;101700;;;33.1;17.0
47710;BME280;33473;51.640;5.892;2022-09-01T14:10:03;101700;;;33.1;16.0
47710;BME280;33473;51.640;5.892;2022-09-01T14:23:23;101700;;;33.2;17.0
47710;BME280;33473;51.640;5.892;2022-09-01T14:36:43;101700;;;33.0;16.0
47710;BME280;33473;51.640;5.892;2022-09-01T14:50:03;101700;;;32.8;16.0
47710;BME280;33473;51.640;5.892;2022-09-01T15:03:22;101700;;;32.9;16.0
47710;BME280;33473;51.640;5.892;2022-09-01T15:16:42;101600;;;32.7;16.0
47710;BME280;33473;51.640;5.892;2022-09-01T15:30:02;101600;;;32.7;16.0
47710;BME280;33473;51.640;5.892;2022-09-01T15:43:22;101600;;;32.5;17.0
47710;BME280;33473;51.640;5.892;2022-09-01T15:56:42;101600;;;32.3;18.0
47710;BME280;33473;51.640;5.892;2022-09-01T16:10:02;101600;;;32.2;18.0
47710;BME280;33473;51.640;5.892;2022-09-01T16:23:21;101600;;;32.0;18.0
47710;BME280;33473;51.640;5.892;2022-09-01T16:36:41;101600;;;31.8;19.0
47710;BME280;33473;51.640;5.892;2022-09-01T16:50:01;101600;;;31.5;19.0
47710;BME280;33473;51.640;5.892;2022-09-01T17:03:21;101600;;;31.1;20.0
47710;BME280;33473;51.640;5.892;2022-09-01T17:16:41;101600;;;30.5;20.0
47710;BME280;33473;51.640;5.892;2022-09-01T17:30:00;101600;;;30.0;22.0
47710;BME280;33473;51.640;5.892;2022-09-01T17:43:20;101600;;;29.5;22.0
47710;BME280;33473;51.640;5.892;2022-09-01T17:56:40;101600;;;28.9;23.0
47710;BME280;33473;51.640;5.892;2022-09-01T18:10:00;101600;;;28.1;25.0
47710;BME280;33473;51.640;5.892;2022-09-01T18:23:20;101600;;;27.3;26.0
47710;BME280;33473;51.640;5.892;2022-09-01T18:36:39;101600;;;26.6;26.0
47710;BME280;33473;51.640;5.892;2022-09-01T18:49:59;101600;;;26.0;27.0
47710;BME280;33473;51.640;5.892;2022-09-01T19:03:19;101600;;;25.5;28.0
47710;BME280;33473;51.640;5.892;2022-09-01T19:16:39;101600;;;25.1;29.0
47710;BME280;33473;51.640;5.892;2022-09-01T19:29:58;101600;;;24.7;29.0
47710;BME280;33473;51.640;5.892;2022-09-01T19:43:18;101700;;;24.4;29.0
47710;BME280;33473;51.640;5.892;2022-09-01T19:56:38;101600;;;24.1;30.0
47710;BME280;33473;51.640;5.892;2022-09-01T20:09:58;101600;;;23.9;31.0
47710;BME280;33473;51.640;5.892;2022-09-01T20:23:18;101600;;;23.6;31.0
47710;BME280;33473;51.640;5.892;2022-09-01T20:36:37;101600;;;23.4;31.0
47710;BME280;33473;51.640;5.892;2022-09-01T20:49:57;101600;;;23.2;31.0
47710;BME280;33473;51.640;5.892;2022-09-01T21:03:17;101600;;;23.1;32.0
47710;BME280;33473;51.640;5.892;2022-09-01T21:16:37;101600;;;22.9;32.0
47710;BME280;33473;51.640;5.892;2022-09-01T21:29:57;101600;;;22.7;32.0
47710;BME280;33473;51.640;5.892;2022-09-01T21:43:16;101600;;;22.6;33.0
47710;BME280;33473;51.640;5.892;2022-09-01T21:56:36;101600;;;22.5;33.0
47710;BME280;33473;51.640;5.892;2022-09-01T22:09:56;101600;;;22.6;32.0
47710;BME280;33473;51.640;5.892;2022-09-01T22:23:16;101600;;;22.5;33.0
47710;BME280;33473;51.640;5.892;2022-09-01T22:36:36;101600;;;22.4;33.0
47710;BME280;33473;51.640;5.892;2022-09-01T22:49:56;101600;;;22.2;33.0
47710;BME280;33473;51.640;5.892;2022-09-01T23:03:15;101600;;;22.1;34.0
47710;BME280;33473;51.640;5.892;2022-09-01T23:16:35;101600;;;22.0;34.0
47710;BME280;33473;51.640;5.892;2022-09-01T23:29:55;101600;;;21.8;34.0
47710;BME280;33473;51.640;5.892;2022-09-01T23:43:15;101600;;;21.6;34.0
47710;BME280;33473;51.640;5.892;2022-09-01T23:56:35;101600;;;21.6;34.0
